Time;durP1;ratioP1;P1;durP2;ratioP2;P2;SDS_P1;SDS_P2;PMS_P1;PMS_P2;Temp;Humidity;BMP_temperature;BMP_pressure;BME280_temperature;BME280_humidity;BME280_pressure;Samples;Min_cycle;Max_cycle;Signal;HPM_P1;HPM_P2
2022/07/17 00:00:44;;;;;;;3.90;0.90;;;;;;;10.40;68.10;99946.22;431387;1271;141948;-59
2022/07/17 00:10:50;;;;;;;1.40;1.00;;;;;;;10.35;68.48;99952.24;431457;1270;142158;-58
2022/07/17 00:20:56;;;;;;;4.50;2.00;;;;;;;10.35;68.50;99963.98;431766;1270;141844;-58
2022/07/17 00:31:02;;;;;;;2.00;1.00;;;;;;;10.33;68.78;99978.78;431878;1270;142656;-60
2022/07/17 00:41:09;;;;;;;2.00;0.90;;;;;;;10.32;68.99;99983.05;431303;1270;142346;-60
2022/07/17 00:51:15;;;;;;;3.10;1.00;;;;;;;10.29;69.35;99992.65;431266;1271;141846;-60
2022/07/17 01:01:21;;;;;;;2.60;0.80;;;;;;;10.31;69.48;100004.27;430590;1270;153524;-60
2022/07/17 01:11:27;;;;;;;1.00;0.60;;;;;;;10.22;69.72;100011.60;431420;1270;143235;-59
2022/07/17 01:21:41;;;;;;;1.40;0.70;;;;;;;10.16;69.99;100015.63;431885;1270;141683;-61
2022/07/17 01:31:48;;;;;;;1.90;0.70;;;;;;;10.05;70.44;100021.64;431517;1270;142957;-59
2022/07/17 01:41:54;;;;;;;1.70;0.80;;;;;;;9.91;70.82;100024.29;431887;1270;141473;-59
2022/07/17 01:52:00;;;;;;;1.60;0.70;;;;;;;9.81;71.40;100025.19;431401;1271;141477;-59
2022/07/17 02:02:06;;;;;;;5.90;2.00;;;;;;;9.71;71.61;100022.56;430632;1273;144084;-59
2022/07/17 02:12:12;;;;;;;3.40;0.80;;;;;;;9.70;72.25;100023.70;431610;1271;142137;-58
2022/07/17 02:22:18;;;;;;;4.60;1.60;;;;;;;9.65;72.46;100021.64;430917;1270;141826;-60
2022/07/17 02:32:24;;;;;;;3.10;1.10;;;;;;;9.57;72.72;100027.31;431504;1270;142187;-60
2022/07/17 02:42:31;;;;;;;5.30;1.60;;;;;;;9.48;73.19;100030.95;431936;1270;141631;-60
2022/07/17 02:52:38;;;;;;;2.60;1.70;;;;;;;9.48;73.47;100029.90;430703;1270;141870;-58
2022/07/17 03:02:44;;;;;;;2.40;1.00;;;;;;;9.55;73.74;100032.69;431565;1270;143327;-59
2022/07/17 03:12:50;;;;;;;3.50;1.10;;;;;;;9.91;73.83;100041.94;431462;1270;142159;-59
2022/07/17 03:22:56;;;;;;;3.00;1.00;;;;;;;11.18;72.81;100042.21;430447;1270;142546;-59
2022/07/17 03:33:02;;;;;;;1.50;1.00;;;;;;;11.83;70.96;100044.67;431297;1270;142523;-58
2022/07/17 03:43:08;;;;;;;1.50;1.20;;;;;;;11.44;70.11;100063.48;431229;1271;143604;-58
2022/07/17 03:53:14;;;;;;;1.40;0.90;;;;;;;10.96;70.61;100080.45;430948;1270;142424;-59
2022/07/17 04:03:20;;;;;;;3.40;1.20;;;;;;;10.99;70.92;100088.52;431269;1270;141406;-59
2022/07/17 04:13:26;;;;;;;3.00;1.70;;;;;;;12.05;71.18;100091.63;431114;1270;142642;-58
2022/07/17 04:23:32;;;;;;;2.30;0.70;;;;;;;19.64;65.44;100085.73;431917;1270;141543;-59
2022/07/17 04:33:38;;;;;;;2.70;1.00;;;;;;;26.64;53.70;100089.55;431331;1270;141957;-58
2022/07/17 04:43:44;;;;;;;2.40;1.00;;;;;;;30.28;44.48;100091.01;430951;1270;147391;-58
2022/07/17 04:53:49;;;;;;;1.40;0.80;;;;;;;30.97;39.69;100107.17;431123;1271;145291;-58
2022/07/17 05:03:55;;;;;;;1.70;0.90;;;;;;;33.87;35.68;100110.84;431224;1270;141983;-57
2022/07/17 05:14:02;;;;;;;3.30;1.30;;;;;;;34.41;32.15;100110.71;430634;1270;141917;-57
2022/07/17 05:24:08;;;;;;;4.90;1.30;;;;;;;34.99;29.83;100126.83;431880;1270;143341;-61
2022/07/17 05:34:14;;;;;;;1.90;0.70;;;;;;;34.85;28.78;100141.07;431514;1270;141694;-58
2022/07/17 05:44:20;;;;;;;2.70;1.40;;;;;;;34.93;27.61;100138.13;431416;1270;145744;-58
2022/07/17 05:54:26;;;;;;;1.40;0.90;;;;;;;36.03;26.80;100137.80;431408;1270;141253;-58
2022/07/17 06:04:32;;;;;;;3.10;1.70;;;;;;;38.61;25.03;100144.05;431112;1270;142972;-58
2022/07/17 06:14:38;;;;;;;2.00;1.30;;;;;;;37.62;24.07;100142.84;431824;1270;142221;-59
2022/07/17 06:24:43;;;;;;;1.30;0.90;;;;;;;36.79;24.09;100148.27;431623;1269;141755;-58
2022/07/17 06:34:49;;;;;;;2.90;1.20;;;;;;;39.41;22.79;100155.05;430577;1270;141408;-59
2022/07/17 06:44:55;;;;;;;1.30;0.90;;;;;;;40.16;21.44;100161.43;432060;1270;145033;-59
2022/07/17 06:55:01;;;;;;;2.60;0.70;;;;;;;41.36;20.31;100168.80;431340;1271;141669;-60
2022/07/17 07:05:08;;;;;;;3.00;0.90;;;;;;;41.49;19.65;100170.80;430682;1271;146479;-59
2022/07/17 07:15:14;;;;;;;1.80;1.70;;;;;;;42.58;19.07;100181.54;431226;1270;141073;-59
2022/07/17 07:25:21;;;;;;;1.60;1.10;;;;;;;41.19;18.92;100183.89;430784;1271;141148;-58
2022/07/17 07:35:28;;;;;;;2.80;0.90;;;;;;;40.85;19.36;100184.69;431614;1271;147080;-60
2022/07/17 07:45:34;;;;;;;1.10;1.00;;;;;;;41.56;18.24;100190.45;431260;1270;147257;-59
2022/07/17 07:55:40;;;;;;;1.10;1.00;;;;;;;42.16;17.64;100188.87;430909;1271;141969;-59
2022/07/17 08:05:46;;;;;;;1.20;0.70;;;;;;;39.15;17.63;100196.15;431402;1271;142238;-59
2022/07/17 08:15:53;;;;;;;2.80;0.60;;;;;;;30.20;23.55;100202.36;431486;1270;142266;-60
2022/07/17 08:25:59;;;;;;;5.30;1.00;;;;;;;26.66;27.50;100204.58;431111;1270;141047;-60
2022/07/17 08:36:05;;;;;;;1.20;0.90;;;;;;;25.82;29.12;100214.34;431230;1270;142292;-60
2022/07/17 08:46:13;;;;;;;1.90;0.90;;;;;;;25.00;31.02;100226.92;432107;1271;141207;-61
2022/07/17 08:56:19;;;;;;;1.90;0.60;;;;;;;24.41;32.33;100228.41;431956;1270;142050;-60
2022/07/17 09:06:26;;;;;;;0.50;0.50;;;;;;;23.49;33.75;100227.52;431624;1270;150867;-58
2022/07/17 09:16:37;;;;;;;2.40;0.50;;;;;;;23.95;33.88;100227.88;431093;1270;146331;-60
2022/07/17 09:26:47;;;;;;;1.90;0.40;;;;;;;24.02;34.10;100231.01;431450;1270;141531;-60
2022/07/17 09:37:02;;;;;;;1.70;0.50;;;;;;;23.89;33.63;100238.39;432116;1270;140574;-60
2022/07/17 09:47:09;;;;;;;0.40;0.40;;;;;;;22.99;34.85;100246.21;431364;1273;146091;-58
2022/07/17 09:57:16;;;;;;;0.60;0.30;;;;;;;23.31;34.44;100237.69;432017;1270;144724;-60
2022/07/17 10:07:23;;;;;;;0.90;0.50;;;;;;;22.61;35.08;100242.13;430996;1270;140935;-59
2022/07/17 10:17:29;;;;;;;1.90;0.50;;;;;;;21.99;35.37;100245.89;431797;1270;146364;-59
2022/07/17 10:27:46;;;;;;;1.20;0.30;;;;;;;21.40;36.37;100252.14;431676;1271;141480;-58
2022/07/17 10:37:52;;;;;;;1.80;0.20;;;;;;;21.37;36.47;100261.77;431049;1270;146125;-59
2022/07/17 10:48:01;;;;;;;1.30;0.40;;;;;;;21.92;35.97;100252.75;431799;1270;142106;-60
2022/07/17 10:58:21;;;;;;;1.90;0.60;;;;;;;21.88;35.56;100246.52;431836;1270;146284;-59
2022/07/17 11:08:26;;;;;;;0.80;0.30;;;;;;;22.60;34.27;100250.65;432057;1270;143079;-59
2022/07/17 11:18:32;;;;;;;2.80;0.50;;;;;;;22.84;34.01;100243.66;432126;1270;147366;-61
2022/07/17 11:28:41;;;;;;;0.30;0.30;;;;;;;22.52;34.13;100245.77;431069;1270;528419;-61
2022/07/17 11:38:46;;;;;;;1.10;0.40;;;;;;;23.03;33.57;100232.20;432096;1270;140966;-60
2022/07/17 11:48:52;;;;;;;2.50;1.30;;;;;;;22.61;33.19;100242.84;432023;1270;141608;-60
2022/07/17 11:58:58;;;;;;;1.70;0.60;;;;;;;22.66;33.88;100244.50;431759;1270;142427;-59
2022/07/17 12:09:07;;;;;;;2.90;0.50;;;;;;;22.77;33.42;100242.98;431819;1271;142814;-60
2022/07/17 12:19:15;;;;;;;1.40;0.50;;;;;;;22.58;33.32;100245.66;431496;1271;141192;-60
2022/07/17 12:29:21;;;;;;;3.10;0.50;;;;;;;22.71;32.74;100240.98;431979;1270;141214;-60
2022/07/17 12:39:27;;;;;;;1.40;0.40;;;;;;;22.65;32.63;100244.62;431721;1271;142910;-61
2022/07/17 12:49:34;;;;;;;0.80;0.30;;;;;;;22.30;33.12;100240.73;431361;1270;141476;-59
2022/07/17 12:59:40;;;;;;;1.40;0.70;;;;;;;22.55;32.49;100231.53;431480;1271;141442;-59
2022/07/17 13:09:46;;;;;;;2.40;0.30;;;;;;;22.69;31.70;100231.36;432305;1271;141125;-59
2022/07/17 13:19:52;;;;;;;0.60;0.50;;;;;;;23.24;31.68;100226.06;429956;1271;201031;-60
2022/07/17 13:29:58;;;;;;;4.30;0.80;;;;;;;23.49;31.93;100228.21;432382;1271;142027;-60
2022/07/17 13:40:04;;;;;;;1.60;0.70;;;;;;;23.24;31.04;100228.21;432148;1271;141016;-60
2022/07/17 13:50:11;;;;;;;1.70;0.40;;;;;;;22.93;31.62;100233.88;431244;1270;142085;-61
2022/07/17 14:00:19;;;;;;;6.10;1.80;;;;;;;22.76;32.03;100231.45;432440;1271;140771;-59
2022/07/17 14:10:25;;;;;;;3.50;1.20;;;;;;;22.53;32.23;100233.69;431660;1271;141385;-59
2022/07/17 14:20:31;;;;;;;3.50;0.80;;;;;;;22.30;32.35;100227.66;432243;1271;142901;-59
2022/07/17 14:30:37;;;;;;;1.70;0.60;;;;;;;21.82;32.94;100229.16;431355;1271;144621;-61
2022/07/17 14:40:43;;;;;;;2.80;0.60;;;;;;;21.97;33.04;100224.27;431888;1271;141200;-62
2022/07/17 14:50:49;;;;;;;2.70;0.80;;;;;;;22.06;32.88;100225.54;431947;1271;141992;-60
2022/07/17 15:00:54;;;;;;;0.40;0.40;;;;;;;22.05;32.40;100229.31;432317;1270;141695;-58
2022/07/17 15:11:08;;;;;;;3.40;0.50;;;;;;;22.11;32.61;100225.55;430503;1270;141775;-60
2022/07/17 15:21:14;;;;;;;1.20;0.30;;;;;;;22.04;32.68;100222.24;435644;1271;187993;-57
2022/07/17 15:31:40;;;;;;;2.80;0.70;;;;;;;21.99;32.71;100221.71;430602;1270;141716;-58
2022/07/17 15:41:46;;;;;;;1.90;0.80;;;;;;;22.02;32.50;100223.60;431510;1270;140930;-60
2022/07/17 15:51:52;;;;;;;0.40;0.30;;;;;;;21.80;32.33;100224.91;431856;1270;141431;-59
2022/07/17 16:01:59;;;;;;;2.10;0.40;;;;;;;21.50;32.54;100222.84;430248;1271;142289;-61
2022/07/17 16:12:06;;;;;;;1.30;0.50;;;;;;;21.33;33.06;100217.25;432000;1270;141654;-60
2022/07/17 16:22:12;;;;;;;1.70;0.60;;;;;;;21.14;33.51;100212.38;431550;1271;142298;-59
2022/07/17 16:32:18;;;;;;;1.90;0.30;;;;;;;20.96;33.85;100208.83;432494;1271;145037;-59
2022/07/17 16:42:24;;;;;;;3.60;0.80;;;;;;;20.83;34.13;100202.58;431665;1271;140983;-60
2022/07/17 16:52:30;;;;;;;1.90;0.70;;;;;;;20.72;34.49;100201.64;431057;1271;141969;-59
2022/07/17 17:02:36;;;;;;;1.20;0.50;;;;;;;20.66;34.72;100200.27;431391;1271;140166;-60
2022/07/17 17:12:42;;;;;;;2.00;0.80;;;;;;;20.57;35.01;100202.20;431547;1271;140654;-59
2022/07/17 17:22:49;;;;;;;2.40;0.90;;;;;;;20.39;35.29;100209.45;431138;1271;142170;-58
2022/07/17 17:32:55;;;;;;;1.50;0.50;;;;;;;20.09;35.81;100206.14;431252;1270;140952;-57
2022/07/17 17:43:00;;;;;;;1.50;0.50;;;;;;;19.81;36.44;100208.77;430686;1271;141683;-58
2022/07/17 17:53:07;;;;;;;2.30;0.60;;;;;;;19.59;36.77;100215.02;430494;1270;142101;-59
2022/07/17 18:03:13;;;;;;;0.90;0.60;;;;;;;19.33;37.35;100219.70;431487;1270;183630;-58
2022/07/17 18:13:19;;;;;;;3.60;0.30;;;;;;;19.07;37.72;100228.92;431342;1269;142024;-60
2022/07/17 18:23:27;;;;;;;5.00;1.00;;;;;;;19.46;37.56;100238.04;431032;1271;142410;-60
2022/07/17 18:33:40;;;;;;;3.70;1.20;;;;;;;19.08;37.62;100233.27;431798;1271;140865;-59
2022/07/17 18:43:46;;;;;;;3.00;0.80;;;;;;;18.29;38.45;100243.48;431734;1270;141596;-60
2022/07/17 18:53:52;;;;;;;2.10;0.90;;;;;;;17.75;39.67;100248.89;431867;1270;141783;-59
2022/07/17 19:03:58;;;;;;;5.80;1.90;;;;;;;17.18;41.61;100256.35;431902;1270;141483;-58
2022/07/17 19:14:04;;;;;;;4.30;1.10;;;;;;;16.62;43.35;100271.39;431251;1270;142093;-59
2022/07/17 19:24:11;;;;;;;3.80;1.50;;;;;;;16.12;44.80;100278.22;431253;1270;141224;-61
2022/07/17 19:34:16;;;;;;;3.90;1.60;;;;;;;15.63;46.19;100282.70;431638;1270;141901;-61
2022/07/17 19:44:22;;;;;;;6.40;2.80;;;;;;;15.19;47.69;100293.52;431861;1270;140690;-59
2022/07/17 19:54:28;;;;;;;2.70;1.30;;;;;;;14.79;48.88;100303.55;432133;1270;143646;-59
2022/07/17 20:04:34;;;;;;;2.40;0.90;;;;;;;14.40;50.13;100304.98;431240;1270;140832;-60
2022/07/17 20:14:40;;;;;;;1.60;0.90;;;;;;;13.98;51.13;100305.84;432047;1269;149319;-59
2022/07/17 20:24:46;;;;;;;2.10;1.50;;;;;;;13.63;52.34;100313.21;431804;1270;142014;-59
2022/07/17 20:34:52;;;;;;;4.70;1.60;;;;;;;13.33;53.22;100318.44;430838;1270;143061;-60
2022/07/17 20:44:58;;;;;;;3.80;1.60;;;;;;;13.02;54.32;100324.96;431290;1271;141265;-60
2022/07/17 20:55:05;;;;;;;5.10;2.50;;;;;;;12.77;55.33;100328.27;431837;1270;141491;-58
2022/07/17 21:05:11;;;;;;;5.80;2.60;;;;;;;12.52;56.15;100332.94;431517;1271;142562;-59
2022/07/17 21:15:19;;;;;;;3.60;2.20;;;;;;;12.25;57.03;100339.08;431867;1270;141429;-60
2022/07/17 21:25:26;;;;;;;4.00;1.60;;;;;;;12.04;57.75;100339.42;430864;1270;145839;-58
2022/07/17 21:35:32;;;;;;;6.20;2.00;;;;;;;11.86;58.46;100349.35;431993;1270;141826;-59
2022/07/17 21:45:37;;;;;;;6.00;3.00;;;;;;;11.67;59.27;100359.73;431667;1270;141467;-60
2022/07/17 21:55:44;;;;;;;3.70;3.10;;;;;;;11.51;59.91;100369.35;430794;1271;142856;-60
2022/07/17 22:05:52;;;;;;;3.90;3.30;;;;;;;11.34;60.42;100368.52;431650;1270;143641;-59
2022/07/17 22:15:58;;;;;;;7.40;3.20;;;;;;;11.19;61.06;100372.33;431536;1270;185946;-61
2022/07/17 22:26:04;;;;;;;5.30;2.90;;;;;;;11.04;61.73;100379.65;431376;1270;143027;-59
2022/07/17 22:36:11;;;;;;;5.00;2.80;;;;;;;10.87;62.36;100376.65;431818;1270;143462;-63
2022/07/17 22:46:16;;;;;;;4.30;3.20;;;;;;;10.73;62.93;100373.67;431706;1270;141538;-59
2022/07/17 22:56:22;;;;;;;4.00;3.10;;;;;;;10.60;63.33;100371.23;431778;1270;141976;-60
2022/07/17 23:06:35;;;;;;;4.30;3.10;;;;;;;10.45;63.83;100371.25;431997;1270;140611;-58
2022/07/17 23:16:41;;;;;;;6.00;3.40;;;;;;;10.34;63.93;100365.14;430676;1270;142953;-60
2022/07/17 23:26:47;;;;;;;4.10;2.60;;;;;;;10.23;64.17;100361.66;431190;1270;297444;-59
2022/07/17 23:36:53;;;;;;;6.40;3.20;;;;;;;10.13;64.60;100361.98;431420;1270;142220;-59
2022/07/17 23:46:59;;;;;;;7.70;3.50;;;;;;;10.04;65.12;100362.41;431192;1270;142494;-59
2022/07/17 23:57:05;;;;;;;4.40;3.00;;;;;;;9.96;65.43;100356.50;431859;1270;142500;-61
